sensor_id;sensor_type;location;lat;lon;timestamp;temperature;humidity
22607;DHT22;11470;20.968;105.834;2023-06-10T00:01:44;30.50;99.90
22607;DHT22;11470;20.968;105.834;2023-06-10T00:06:52;30.60;99.90
22607;DHT22;11470;20.968;105.834;2023-06-10T00:11:58;30.60;99.90
22607;DHT22;11470;20.968;105.834;2023-06-10T00:17:06;30.80;99.90
22607;DHT22;11470;20.968;105.834;2023-06-10T00:22:15;31.10;99.90
22607;DHT22;11470;20.968;105.834;2023-06-10T00:27:21;31.40;99.90
22607;DHT22;11470;20.968;105.834;2023-06-10T00:32:27;31.90;99.90
22607;DHT22;11470;20.968;105.834;2023-06-10T00:37:33;32.20;99.90
22607;DHT22;11470;20.968;105.834;2023-06-10T00:42:44;32.30;99.90
22607;DHT22;11470;20.968;105.834;2023-06-10T00:47:50;32.30;99.90
22607;DHT22;11470;20.968;105.834;2023-06-10T00:52:56;32.40;99.90
22607;DHT22;11470;20.968;105.834;2023-06-10T00:58:04;32.60;99.90
22607;DHT22;11470;20.968;105.834;2023-06-10T01:03:09;33.00;99.90
22607;DHT22;11470;20.968;105.834;2023-06-10T01:08:33;33.40;99.90
22607;DHT22;11470;20.968;105.834;2023-06-10T01:13:42;33.80;99.90
22607;DHT22;11470;20.968;105.834;2023-06-10T01:18:49;34.00;99.90
22607;DHT22;11470;20.968;105.834;2023-06-10T01:23:57;33.90;99.90
22607;DHT22;11470;20.968;105.834;2023-06-10T01:29:11;34.00;99.90
22607;DHT22;11470;20.968;105.834;2023-06-10T01:34:21;34.30;99.90
22607;DHT22;11470;20.968;105.834;2023-06-10T01:39:30;34.40;99.90
22607;DHT22;11470;20.968;105.834;2023-06-10T01:44:39;34.30;99.90
22607;DHT22;11470;20.968;105.834;2023-06-10T01:49:45;34.40;99.90
22607;DHT22;11470;20.968;105.834;2023-06-10T01:54:51;34.60;99.90
22607;DHT22;11470;20.968;105.834;2023-06-10T01:59:58;34.50;99.90
22607;DHT22;11470;20.968;105.834;2023-06-10T02:05:04;34.70;99.90
22607;DHT22;11470;20.968;105.834;2023-06-10T02:10:11;34.80;99.90
22607;DHT22;11470;20.968;105.834;2023-06-10T02:15:16;35.10;99.90
22607;DHT22;11470;20.968;105.834;2023-06-10T02:20:22;35.60;99.90
22607;DHT22;11470;20.968;105.834;2023-06-10T02:25:28;36.20;99.90
22607;DHT22;11470;20.968;105.834;2023-06-10T02:30:34;36.10;99.90
22607;DHT22;11470;20.968;105.834;2023-06-10T02:35:40;36.00;99.90
22607;DHT22;11470;20.968;105.834;2023-06-10T02:40:46;35.70;99.90
22607;DHT22;11470;20.968;105.834;2023-06-10T02:45:52;35.70;99.90
22607;DHT22;11470;20.968;105.834;2023-06-10T02:50:59;36.10;99.90
22607;DHT22;11470;20.968;105.834;2023-06-10T02:56:11;36.00;99.90
22607;DHT22;11470;20.968;105.834;2023-06-10T03:01:17;35.70;99.90
22607;DHT22;11470;20.968;105.834;2023-06-10T03:06:32;35.70;99.90
22607;DHT22;11470;20.968;105.834;2023-06-10T03:11:53;35.90;99.90
22607;DHT22;11470;20.968;105.834;2023-06-10T03:17:00;36.30;99.90
22607;DHT22;11470;20.968;105.834;2023-06-10T03:22:10;36.40;99.90
22607;DHT22;11470;20.968;105.834;2023-06-10T03:27:35;36.30;99.90
22607;DHT22;11470;20.968;105.834;2023-06-10T03:32:43;35.80;99.90
22607;DHT22;11470;20.968;105.834;2023-06-10T03:37:52;35.70;99.90
22607;DHT22;11470;20.968;105.834;2023-06-10T03:42:58;36.70;99.90
22607;DHT22;11470;20.968;105.834;2023-06-10T03:48:06;37.40;98.80
22607;DHT22;11470;20.968;105.834;2023-06-10T03:53:20;36.70;99.90
22607;DHT22;11470;20.968;105.834;2023-06-10T03:58:27;36.60;99.90
22607;DHT22;11470;20.968;105.834;2023-06-10T04:03:34;36.70;99.30
22607;DHT22;11470;20.968;105.834;2023-06-10T04:08:40;36.70;99.50
22607;DHT22;11470;20.968;105.834;2023-06-10T04:13:46;36.40;99.90
22607;DHT22;11470;20.968;105.834;2023-06-10T04:18:52;36.40;99.90
22607;DHT22;11470;20.968;105.834;2023-06-10T04:23:59;36.20;99.90
22607;DHT22;11470;20.968;105.834;2023-06-10T04:29:07;36.20;99.90
22607;DHT22;11470;20.968;105.834;2023-06-10T04:34:13;36.20;99.90
22607;DHT22;11470;20.968;105.834;2023-06-10T04:39:20;36.20;99.60
22607;DHT22;11470;20.968;105.834;2023-06-10T04:44:25;36.40;99.90
22607;DHT22;11470;20.968;105.834;2023-06-10T04:49:31;36.50;99.90
22607;DHT22;11470;20.968;105.834;2023-06-10T04:54:38;36.80;99.20
22607;DHT22;11470;20.968;105.834;2023-06-10T04:59:44;36.90;98.90
22607;DHT22;11470;20.968;105.834;2023-06-10T05:04:49;37.20;97.20
22607;DHT22;11470;20.968;105.834;2023-06-10T05:09:55;37.30;96.40
22607;DHT22;11470;20.968;105.834;2023-06-10T05:15:00;36.30;99.10
22607;DHT22;11470;20.968;105.834;2023-06-10T05:20:06;36.80;97.80
22607;DHT22;11470;20.968;105.834;2023-06-10T05:25:12;36.70;98.30
22607;DHT22;11470;20.968;105.834;2023-06-10T05:30:19;36.20;99.60
22607;DHT22;11470;20.968;105.834;2023-06-10T05:35:24;35.80;99.90
22607;DHT22;11470;20.968;105.834;2023-06-10T05:40:30;35.40;99.90
22607;DHT22;11470;20.968;105.834;2023-06-10T05:45:36;35.30;99.90
22607;DHT22;11470;20.968;105.834;2023-06-10T05:50:45;36.00;99.90
22607;DHT22;11470;20.968;105.834;2023-06-10T05:55:53;36.40;99.60
22607;DHT22;11470;20.968;105.834;2023-06-10T06:01:02;35.90;99.90
22607;DHT22;11470;20.968;105.834;2023-06-10T06:06:11;35.70;99.90
22607;DHT22;11470;20.968;105.834;2023-06-10T06:11:17;37.40;97.90
22607;DHT22;11470;20.968;105.834;2023-06-10T06:16:22;39.20;92.50
22607;DHT22;11470;20.968;105.834;2023-06-10T06:21:28;40.40;90.50
22607;DHT22;11470;20.968;105.834;2023-06-10T06:26:34;41.40;82.00
22607;DHT22;11470;20.968;105.834;2023-06-10T06:31:40;41.10;81.90
22607;DHT22;11470;20.968;105.834;2023-06-10T06:36:45;41.80;79.30
22607;DHT22;11470;20.968;105.834;2023-06-10T06:41:53;42.60;76.30
22607;DHT22;11470;20.968;105.834;2023-06-10T06:47:16;42.30;73.70
22607;DHT22;11470;20.968;105.834;2023-06-10T06:52:25;40.60;79.20
22607;DHT22;11470;20.968;105.834;2023-06-10T06:57:32;41.40;79.60
22607;DHT22;11470;20.968;105.834;2023-06-10T07:02:38;42.50;74.20
22607;DHT22;11470;20.968;105.834;2023-06-10T07:14:20;41.20;76.70
22607;DHT22;11470;20.968;105.834;2023-06-10T07:19:26;41.10;76.80
22607;DHT22;11470;20.968;105.834;2023-06-10T07:24:32;41.30;76.50
22607;DHT22;11470;20.968;105.834;2023-06-10T07:29:38;41.20;76.00
22607;DHT22;11470;20.968;105.834;2023-06-10T07:34:44;41.40;76.30
22607;DHT22;11470;20.968;105.834;2023-06-10T07:39:50;41.60;75.40
22607;DHT22;11470;20.968;105.834;2023-06-10T07:44:55;41.20;76.70
22607;DHT22;11470;20.968;105.834;2023-06-10T07:50:04;40.40;78.10
22607;DHT22;11470;20.968;105.834;2023-06-10T07:55:10;42.00;75.90
22607;DHT22;11470;20.968;105.834;2023-06-10T08:00:15;43.40;70.90
22607;DHT22;11470;20.968;105.834;2023-06-10T08:05:22;43.60;69.50
22607;DHT22;11470;20.968;105.834;2023-06-10T08:10:30;43.50;68.90
22607;DHT22;11470;20.968;105.834;2023-06-10T08:15:37;43.80;66.70
22607;DHT22;11470;20.968;105.834;2023-06-10T08:20:42;43.70;68.10
22607;DHT22;11470;20.968;105.834;2023-06-10T08:25:48;43.40;67.70
22607;DHT22;11470;20.968;105.834;2023-06-10T08:30:54;43.00;68.60
22607;DHT22;11470;20.968;105.834;2023-06-10T08:36:00;42.60;66.90
22607;DHT22;11470;20.968;105.834;2023-06-10T08:41:07;41.70;69.60
22607;DHT22;11470;20.968;105.834;2023-06-10T08:46:15;40.30;75.70
22607;DHT22;11470;20.968;105.834;2023-06-10T08:51:22;39.60;76.30
22607;DHT22;11470;20.968;105.834;2023-06-10T08:56:33;38.70;78.70
22607;DHT22;11470;20.968;105.834;2023-06-10T09:01:44;38.10;80.40
22607;DHT22;11470;20.968;105.834;2023-06-10T09:06:50;37.60;82.60
22607;DHT22;11470;20.968;105.834;2023-06-10T09:11:56;37.40;82.90
22607;DHT22;11470;20.968;105.834;2023-06-10T09:17:03;37.20;84.00
22607;DHT22;11470;20.968;105.834;2023-06-10T09:22:09;37.00;86.10
22607;DHT22;11470;20.968;105.834;2023-06-10T09:27:15;36.90;85.50
22607;DHT22;11470;20.968;105.834;2023-06-10T09:32:21;36.80;86.60
22607;DHT22;11470;20.968;105.834;2023-06-10T09:37:27;36.60;87.80
22607;DHT22;11470;20.968;105.834;2023-06-10T09:42:38;36.50;86.70
22607;DHT22;11470;20.968;105.834;2023-06-10T09:47:47;36.50;88.40
22607;DHT22;11470;20.968;105.834;2023-06-10T09:52:52;36.20;89.50
22607;DHT22;11470;20.968;105.834;2023-06-10T09:57:59;35.80;90.70
22607;DHT22;11470;20.968;105.834;2023-06-10T10:03:05;35.50;91.40
22607;DHT22;11470;20.968;105.834;2023-06-10T10:08:12;35.30;92.20
22607;DHT22;11470;20.968;105.834;2023-06-10T10:13:18;35.30;92.50
22607;DHT22;11470;20.968;105.834;2023-06-10T10:18:27;35.40;92.70
22607;DHT22;11470;20.968;105.834;2023-06-10T10:23:52;35.50;92.80
22607;DHT22;11470;20.968;105.834;2023-06-10T10:29:20;35.60;92.60
22607;DHT22;11470;20.968;105.834;2023-06-10T10:35:03;35.60;92.70
22607;DHT22;11470;20.968;105.834;2023-06-10T10:40:14;35.50;93.30
22607;DHT22;11470;20.968;105.834;2023-06-10T10:45:22;35.30;90.20
22607;DHT22;11470;20.968;105.834;2023-06-10T10:50:29;35.20;90.20
22607;DHT22;11470;20.968;105.834;2023-06-10T10:55:39;35.10;94.40
22607;DHT22;11470;20.968;105.834;2023-06-10T11:00:45;34.90;95.30
22607;DHT22;11470;20.968;105.834;2023-06-10T11:05:51;34.70;95.40
22607;DHT22;11470;20.968;105.834;2023-06-10T11:10:57;34.60;95.60
22607;DHT22;11470;20.968;105.834;2023-06-10T11:16:04;34.40;93.70
22607;DHT22;11470;20.968;105.834;2023-06-10T11:21:10;34.30;96.80
22607;DHT22;11470;20.968;105.834;2023-06-10T11:31:50;34.10;94.60
22607;DHT22;11470;20.968;105.834;2023-06-10T11:36:57;33.90;96.50
22607;DHT22;11470;20.968;105.834;2023-06-10T11:42:05;33.90;99.00
22607;DHT22;11470;20.968;105.834;2023-06-10T11:47:11;33.80;96.40
22607;DHT22;11470;20.968;105.834;2023-06-10T11:52:26;33.70;99.90
22607;DHT22;11470;20.968;105.834;2023-06-10T11:57:36;33.50;99.90
22607;DHT22;11470;20.968;105.834;2023-06-10T12:02:45;33.50;99.90
22607;DHT22;11470;20.968;105.834;2023-06-10T12:08:08;33.50;99.90
22607;DHT22;11470;20.968;105.834;2023-06-10T12:13:14;33.50;99.90
22607;DHT22;11470;20.968;105.834;2023-06-10T12:18:21;33.50;99.90
22607;DHT22;11470;20.968;105.834;2023-06-10T12:23:27;33.40;99.90
22607;DHT22;11470;20.968;105.834;2023-06-10T12:28:34;33.40;99.90
22607;DHT22;11470;20.968;105.834;2023-06-10T12:33:39;33.30;99.90
22607;DHT22;11470;20.968;105.834;2023-06-10T12:38:47;33.20;99.90
22607;DHT22;11470;20.968;105.834;2023-06-10T12:43:57;33.20;99.90
22607;DHT22;11470;20.968;105.834;2023-06-10T12:49:03;33.20;99.90
22607;DHT22;11470;20.968;105.834;2023-06-10T12:54:09;33.20;99.90
22607;DHT22;11470;20.968;105.834;2023-06-10T12:59:15;33.10;99.90
22607;DHT22;11470;20.968;105.834;2023-06-10T13:04:21;33.00;99.90
22607;DHT22;11470;20.968;105.834;2023-06-10T13:09:27;33.00;99.90
22607;DHT22;11470;20.968;105.834;2023-06-10T13:14:33;32.90;99.90
22607;DHT22;11470;20.968;105.834;2023-06-10T13:19:39;32.90;99.90
22607;DHT22;11470;20.968;105.834;2023-06-10T13:24:45;32.90;99.90
22607;DHT22;11470;20.968;105.834;2023-06-10T13:29:51;32.90;99.90
22607;DHT22;11470;20.968;105.834;2023-06-10T13:34:57;32.90;99.90
22607;DHT22;11470;20.968;105.834;2023-06-10T13:40:07;32.80;99.90
22607;DHT22;11470;20.968;105.834;2023-06-10T13:45:14;32.70;99.90
22607;DHT22;11470;20.968;105.834;2023-06-10T13:50:20;32.70;99.90
22607;DHT22;11470;20.968;105.834;2023-06-10T13:55:26;32.70;99.90
22607;DHT22;11470;20.968;105.834;2023-06-10T14:00:32;32.60;99.90
22607;DHT22;11470;20.968;105.834;2023-06-10T14:05:38;32.50;99.90
22607;DHT22;11470;20.968;105.834;2023-06-10T14:10:44;32.50;99.90
22607;DHT22;11470;20.968;105.834;2023-06-10T14:15:51;32.50;99.90
22607;DHT22;11470;20.968;105.834;2023-06-10T14:20:57;32.50;99.90
22607;DHT22;11470;20.968;105.834;2023-06-10T14:26:03;32.40;99.90
22607;DHT22;11470;20.968;105.834;2023-06-10T14:31:11;32.30;99.90
22607;DHT22;11470;20.968;105.834;2023-06-10T14:36:17;32.20;99.90
22607;DHT22;11470;20.968;105.834;2023-06-10T14:41:24;32.10;99.90
22607;DHT22;11470;20.968;105.834;2023-06-10T14:46:31;32.00;99.90
22607;DHT22;11470;20.968;105.834;2023-06-10T14:51:36;31.80;99.90
22607;DHT22;11470;20.968;105.834;2023-06-10T14:56:42;31.50;99.90
22607;DHT22;11470;20.968;105.834;2023-06-10T15:01:48;31.50;99.90
22607;DHT22;11470;20.968;105.834;2023-06-10T15:06:54;31.50;99.90
22607;DHT22;11470;20.968;105.834;2023-06-10T15:12:00;31.40;99.90
22607;DHT22;11470;20.968;105.834;2023-06-10T15:17:06;31.30;99.90
22607;DHT22;11470;20.968;105.834;2023-06-10T15:22:14;31.20;99.90
22607;DHT22;11470;20.968;105.834;2023-06-10T15:27:21;31.20;99.90
22607;DHT22;11470;20.968;105.834;2023-06-10T15:32:26;31.10;99.90
22607;DHT22;11470;20.968;105.834;2023-06-10T15:37:32;31.10;99.90
22607;DHT22;11470;20.968;105.834;2023-06-10T15:42:38;30.90;99.90
22607;DHT22;11470;20.968;105.834;2023-06-10T15:47:44;30.90;99.90
22607;DHT22;11470;20.968;105.834;2023-06-10T15:52:50;30.70;99.90
22607;DHT22;11470;20.968;105.834;2023-06-10T15:57:56;30.70;99.90
22607;DHT22;11470;20.968;105.834;2023-06-10T16:03:08;30.70;99.90
22607;DHT22;11470;20.968;105.834;2023-06-10T16:08:15;30.60;99.90
22607;DHT22;11470;20.968;105.834;2023-06-10T16:13:21;30.50;99.90
22607;DHT22;11470;20.968;105.834;2023-06-10T16:18:27;30.40;99.90
22607;DHT22;11470;20.968;105.834;2023-06-10T16:23:33;30.30;99.90
22607;DHT22;11470;20.968;105.834;2023-06-10T16:28:39;30.30;99.90
22607;DHT22;11470;20.968;105.834;2023-06-10T16:33:45;30.20;99.90
22607;DHT22;11470;20.968;105.834;2023-06-10T16:38:54;30.20;99.90
22607;DHT22;11470;20.968;105.834;2023-06-10T16:44:00;30.10;99.90
22607;DHT22;11470;20.968;105.834;2023-06-10T16:49:07;30.10;99.90
22607;DHT22;11470;20.968;105.834;2023-06-10T16:54:12;30.10;99.90
22607;DHT22;11470;20.968;105.834;2023-06-10T16:59:19;30.00;99.90
22607;DHT22;11470;20.968;105.834;2023-06-10T17:04:24;30.00;99.90
22607;DHT22;11470;20.968;105.834;2023-06-10T17:09:31;30.00;99.90
22607;DHT22;11470;20.968;105.834;2023-06-10T17:14:36;29.90;99.90
22607;DHT22;11470;20.968;105.834;2023-06-10T17:19:42;30.00;99.90
22607;DHT22;11470;20.968;105.834;2023-06-10T17:24:51;29.90;99.90
22607;DHT22;11470;20.968;105.834;2023-06-10T17:29:57;29.90;99.90
22607;DHT22;11470;20.968;105.834;2023-06-10T17:35:03;29.90;99.90
22607;DHT22;11470;20.968;105.834;2023-06-10T17:40:11;29.90;99.90
22607;DHT22;11470;20.968;105.834;2023-06-10T17:45:17;29.80;99.90
22607;DHT22;11470;20.968;105.834;2023-06-10T17:50:24;29.70;99.90
22607;DHT22;11470;20.968;105.834;2023-06-10T17:55:29;29.70;99.90
22607;DHT22;11470;20.968;105.834;2023-06-10T18:00:35;29.60;99.90
22607;DHT22;11470;20.968;105.834;2023-06-10T18:05:41;29.60;99.90
22607;DHT22;11470;20.968;105.834;2023-06-10T18:10:47;29.60;99.90
22607;DHT22;11470;20.968;105.834;2023-06-10T18:15:52;29.60;99.90
22607;DHT22;11470;20.968;105.834;2023-06-10T18:20:58;29.60;99.90
22607;DHT22;11470;20.968;105.834;2023-06-10T18:26:06;29.60;99.90
22607;DHT22;11470;20.968;105.834;2023-06-10T18:31:12;29.50;99.90
22607;DHT22;11470;20.968;105.834;2023-06-10T18:36:18;29.50;99.90
22607;DHT22;11470;20.968;105.834;2023-06-10T18:41:24;29.50;99.90
22607;DHT22;11470;20.968;105.834;2023-06-10T18:46:32;29.50;99.90
22607;DHT22;11470;20.968;105.834;2023-06-10T18:51:38;29.40;99.90
22607;DHT22;11470;20.968;105.834;2023-06-10T18:56:43;29.40;99.90
22607;DHT22;11470;20.968;105.834;2023-06-10T19:01:49;29.40;99.90
22607;DHT22;11470;20.968;105.834;2023-06-10T19:06:55;29.30;99.90
22607;DHT22;11470;20.968;105.834;2023-06-10T19:12:11;29.30;99.90
22607;DHT22;11470;20.968;105.834;2023-06-10T19:17:18;29.30;99.90
22607;DHT22;11470;20.968;105.834;2023-06-10T19:22:24;29.30;99.90
22607;DHT22;11470;20.968;105.834;2023-06-10T19:27:30;29.20;99.90
22607;DHT22;11470;20.968;105.834;2023-06-10T19:32:35;29.20;99.90
22607;DHT22;11470;20.968;105.834;2023-06-10T19:37:41;29.20;99.90
22607;DHT22;11470;20.968;105.834;2023-06-10T19:42:47;29.20;99.90
22607;DHT22;11470;20.968;105.834;2023-06-10T19:47:53;29.10;99.90
22607;DHT22;11470;20.968;105.834;2023-06-10T19:52:58;29.10;99.90
22607;DHT22;11470;20.968;105.834;2023-06-10T19:58:04;29.20;99.90
22607;DHT22;11470;20.968;105.834;2023-06-10T20:03:10;29.10;99.90
22607;DHT22;11470;20.968;105.834;2023-06-10T20:08:16;29.10;99.90
22607;DHT22;11470;20.968;105.834;2023-06-10T20:13:22;29.20;99.90
22607;DHT22;11470;20.968;105.834;2023-06-10T20:18:29;29.20;99.90
22607;DHT22;11470;20.968;105.834;2023-06-10T20:23:34;29.10;99.90
22607;DHT22;11470;20.968;105.834;2023-06-10T20:28:40;29.10;99.90
22607;DHT22;11470;20.968;105.834;2023-06-10T20:33:46;29.10;99.90
22607;DHT22;11470;20.968;105.834;2023-06-10T20:38:52;29.10;99.90
22607;DHT22;11470;20.968;105.834;2023-06-10T20:43:58;29.10;99.90
22607;DHT22;11470;20.968;105.834;2023-06-10T20:49:04;29.10;99.90
22607;DHT22;11470;20.968;105.834;2023-06-10T20:54:10;29.10;99.90
22607;DHT22;11470;20.968;105.834;2023-06-10T20:59:19;29.00;99.90
22607;DHT22;11470;20.968;105.834;2023-06-10T21:04:25;29.00;99.90
22607;DHT22;11470;20.968;105.834;2023-06-10T21:09:31;29.00;99.90
22607;DHT22;11470;20.968;105.834;2023-06-10T21:14:36;29.10;99.90
22607;DHT22;11470;20.968;105.834;2023-06-10T21:19:43;29.00;99.90
22607;DHT22;11470;20.968;105.834;2023-06-10T21:24:49;29.10;99.90
22607;DHT22;11470;20.968;105.834;2023-06-10T21:29:55;29.10;99.90
22607;DHT22;11470;20.968;105.834;2023-06-10T21:35:00;29.10;99.90
22607;DHT22;11470;20.968;105.834;2023-06-10T21:40:07;29.10;99.90
22607;DHT22;11470;20.968;105.834;2023-06-10T21:45:13;29.00;99.90
22607;DHT22;11470;20.968;105.834;2023-06-10T21:50:19;29.00;99.90
22607;DHT22;11470;20.968;105.834;2023-06-10T21:55:24;29.00;99.90
22607;DHT22;11470;20.968;105.834;2023-06-10T22:00:30;28.90;99.90
22607;DHT22;11470;20.968;105.834;2023-06-10T22:05:36;28.90;99.90
22607;DHT22;11470;20.968;105.834;2023-06-10T22:10:42;28.90;99.90
22607;DHT22;11470;20.968;105.834;2023-06-10T22:15:48;28.90;99.90
22607;DHT22;11470;20.968;105.834;2023-06-10T22:20:53;28.90;99.90
22607;DHT22;11470;20.968;105.834;2023-06-10T22:26:01;28.90;99.90
22607;DHT22;11470;20.968;105.834;2023-06-10T22:31:07;28.90;99.90
22607;DHT22;11470;20.968;105.834;2023-06-10T22:36:13;28.90;99.90
22607;DHT22;11470;20.968;105.834;2023-06-10T22:41:18;29.00;99.90
22607;DHT22;11470;20.968;105.834;2023-06-10T22:46:25;29.00;99.90
22607;DHT22;11470;20.968;105.834;2023-06-10T22:51:31;29.10;99.90
22607;DHT22;11470;20.968;105.834;2023-06-10T22:56:37;29.10;99.90
22607;DHT22;11470;20.968;105.834;2023-06-10T23:01:43;29.20;99.90
22607;DHT22;11470;20.968;105.834;2023-06-10T23:06:48;29.30;99.90
22607;DHT22;11470;20.968;105.834;2023-06-10T23:11:54;29.40;99.90
22607;DHT22;11470;20.968;105.834;2023-06-10T23:17:00;29.60;99.90
22607;DHT22;11470;20.968;105.834;2023-06-10T23:22:06;29.70;99.90
22607;DHT22;11470;20.968;105.834;2023-06-10T23:27:13;30.00;99.90
22607;DHT22;11470;20.968;105.834;2023-06-10T23:32:24;30.00;99.90
22607;DHT22;11470;20.968;105.834;2023-06-10T23:37:31;30.20;99.90
22607;DHT22;11470;20.968;105.834;2023-06-10T23:42:36;30.20;99.90
22607;DHT22;11470;20.968;105.834;2023-06-10T23:47:42;30.20;99.90
22607;DHT22;11470;20.968;105.834;2023-06-10T23:52:47;30.20;99.90
22607;DHT22;11470;20.968;105.834;2023-06-10T23:57:53;30.20;99.90
